Drummondville, Canada
Current Conditions -  °F | °C
As of 11:00 AM on Thursday 23 Oct 2014 (Local Time) from CYRQ Reporting Station
Broken Clouds Broken Clouds  
Wind Chill: 39°   Ceiling: 6500
Heat Index: 46°   Visibility: 9mi
Dew Point: 37°   Wind: 18mph
Humidity: 71%   Direction: 40°NE
Pressure: 30.1"   Gusts: NA
Location:  45.88°N, 72.48°W
Report Text: CYRQ 231500Z AUTO 04016KT 9SM FEW048 BKN065 08/03 A3010 RMK SLP196
Loading
Personal Weather Stations






























Interactive Weather Map
Tropical Storm Tracking
New forecast layout! Learn more

10-Day Weather Forecast

Advertisements
Track Severe Weather on mobile